Pollensa, Spain
Current Conditions -  °F | °C
As of 6:00 PM on Saturday 25 Oct 2014 (Local Time) from LEPA Reporting Station
Clear Clear  
Wind Chill: 79°   Ceiling: Unl
Heat Index: 79°   Visibility: 6mi
Dew Point: 54°   Wind: 9mph
Humidity: 42%   Direction: 210°SSW
Pressure: 30.09"   Gusts: NA
Location:  39.88°N, 3.02°E
Report Text: LEPA 251600Z 21008KT 190V250 CAVOK 26/12 Q1019 NOSIG
Loading
Personal Weather Stations






























Interactive Weather Map
Tropical Storm Tracking
New forecast layout! Learn more

10-Day Weather Forecast

Advertisements
Track Severe Weather on mobile